createdAt,value
2022-09-26T00:01:37.773Z,98216.06
2022-09-26T00:04:09.857Z,98213.31
2022-09-26T00:06:37.704Z,98208.28
2022-09-26T00:09:05.845Z,98209.06
2022-09-26T00:11:35.065Z,98209.66
2022-09-26T00:14:05.789Z,98214.69
2022-09-26T00:16:33.891Z,98208.38
2022-09-26T00:19:02.056Z,98214.38
2022-09-26T00:21:32.154Z,98207.00
2022-09-26T00:24:01.268Z,98206.31
2022-09-26T00:26:30.956Z,98204.88
2022-09-26T00:28:59.426Z,98203.69
2022-09-26T00:31:30.309Z,98206.47
2022-09-26T00:33:58.917Z,98193.84
2022-09-26T00:36:38.071Z,98195.38
2022-09-26T00:39:07.978Z,98195.25
2022-09-26T00:41:39.124Z,98199.81
2022-09-26T00:44:40.380Z,98205.53
2022-09-26T00:47:23.429Z,98206.13
2022-09-26T00:49:54.508Z,98201.00
2022-09-26T00:52:28.897Z,98201.00
2022-09-26T00:54:59.778Z,98199.47
2022-09-26T00:57:32.524Z,98199.34
2022-09-26T01:00:08.409Z,98194.16
2022-09-26T01:02:36.572Z,98198.22
2022-09-26T01:05:08.039Z,98192.78
2022-09-26T01:07:37.312Z,98184.41
2022-09-26T01:10:07.237Z,98193.19
2022-09-26T01:12:37.230Z,98190.25
2022-09-26T01:15:09.492Z,98178.63
2022-09-26T01:17:38.905Z,98184.44
2022-09-26T01:20:22.712Z,98182.50
2022-09-26T01:23:27.042Z,98186.63
2022-09-26T01:26:30.292Z,98188.94
2022-09-26T01:29:39.562Z,98187.44
2022-09-26T01:32:37.494Z,98187.06
2022-09-26T01:35:14.015Z,98192.00
2022-09-26T01:37:59.382Z,98181.44
2022-09-26T01:40:36.000Z,98193.56
2022-09-26T01:43:08.372Z,98193.94
2022-09-26T01:45:45.169Z,98198.41
2022-09-26T01:48:19.369Z,98182.06
2022-09-26T01:50:51.730Z,98187.81
2022-09-26T01:53:23.807Z,98188.66
2022-09-26T01:56:00.376Z,98186.72
2022-09-26T01:58:32.138Z,98194.94
2022-09-26T02:01:04.800Z,98184.47
2022-09-26T02:03:38.450Z,98185.59
2022-09-26T02:06:11.218Z,98185.91
2022-09-26T02:08:42.805Z,98179.59
2022-09-26T02:11:15.115Z,98179.47
2022-09-26T02:13:48.291Z,98184.09
2022-09-26T02:16:22.463Z,98184.81
2022-09-26T02:18:58.799Z,98172.19
2022-09-26T02:21:28.965Z,98176.97
2022-09-26T02:23:56.967Z,98172.34
2022-09-26T02:26:25.052Z,98173.06
2022-09-26T02:28:54.992Z,98166.25
2022-09-26T02:31:25.406Z,98165.84
2022-09-26T02:33:55.240Z,98168.06
2022-09-26T02:36:26.664Z,98165.28
2022-09-26T02:38:54.492Z,98162.44
2022-09-26T02:41:49.373Z,98161.06
2022-09-26T02:44:39.925Z,98153.75
2022-09-26T02:47:28.003Z,98161.63
2022-09-26T02:50:10.333Z,98156.28
2022-09-26T02:52:52.401Z,98149.50
2022-09-26T02:55:38.796Z,98138.41
2022-09-26T02:58:16.416Z,98149.31
2022-09-26T03:00:54.391Z,98141.69
2022-09-26T03:03:24.490Z,98142.13
2022-09-26T03:05:58.657Z,98143.22
2022-09-26T03:08:29.190Z,98137.63
2022-09-26T03:11:01.728Z,98121.56
2022-09-26T03:13:39.032Z,98118.38
2022-09-26T03:16:08.440Z,98120.03
2022-09-26T03:18:42.227Z,98106.94
2022-09-26T03:21:12.194Z,98113.34
2022-09-26T03:23:40.405Z,98115.03
2022-09-26T03:26:12.105Z,98107.06
2022-09-26T03:28:50.044Z,98107.38
2022-09-26T03:31:18.788Z,98107.22
2022-09-26T03:33:55.531Z,98104.66
2022-09-26T03:36:24.655Z,98101.91
2022-09-26T03:38:52.756Z,98100.63
2022-09-26T03:41:43.615Z,98104.38
2022-09-26T03:44:24.319Z,98092.28
2022-09-26T03:47:10.683Z,98093.22
2022-09-26T03:49:43.134Z,98089.34
2022-09-26T03:52:13.984Z,98082.34
2022-09-26T03:54:43.513Z,98072.31
2022-09-26T03:57:17.383Z,98073.69
2022-09-26T03:59:53.905Z,98070.31
2022-09-26T04:02:22.612Z,98074.53
2022-09-26T04:05:01.931Z,98075.53
2022-09-26T04:07:31.127Z,98076.19
2022-09-26T04:09:58.883Z,98068.97
2022-09-26T04:12:28.101Z,98063.81
2022-09-26T04:14:56.054Z,98066.91
2022-09-26T04:17:24.035Z,98061.22
2022-09-26T04:19:51.830Z,98053.91
2022-09-26T04:22:19.580Z,98046.19
2022-09-26T04:24:48.681Z,98050.63
2022-09-26T04:27:17.139Z,98044.38
2022-09-26T04:29:47.428Z,98044.78
2022-09-26T04:32:33.764Z,98038.66
2022-09-26T04:35:20.663Z,98034.59
2022-09-26T04:37:48.623Z,98029.25
2022-09-26T04:40:18.443Z,98028.88
2022-09-26T04:43:08.261Z,98032.19
2022-09-26T04:45:36.300Z,98029.53
2022-09-26T04:48:04.115Z,98033.94
2022-09-26T04:50:50.325Z,98029.53
2022-09-26T04:53:19.328Z,98022.31
2022-09-26T04:56:01.102Z,98017.78
2022-09-26T04:58:32.365Z,98015.78
2022-09-26T05:01:04.021Z,98018.34
2022-09-26T05:03:44.213Z,98019.38
2022-09-26T05:06:14.472Z,98012.06
2022-09-26T05:08:46.296Z,98012.66
2022-09-26T05:11:21.447Z,98002.50
2022-09-26T05:13:53.659Z,98012.97
2022-09-26T05:16:22.663Z,98007.41
2022-09-26T05:18:53.381Z,98011.38
2022-09-26T05:21:21.387Z,98014.28
2022-09-26T05:24:07.017Z,98021.91
2022-09-26T05:26:42.482Z,98025.03
2022-09-26T05:29:11.980Z,98016.56
2022-09-26T05:31:46.636Z,98013.06
2022-09-26T05:34:19.433Z,98003.84
2022-09-26T05:36:48.127Z,98000.78
2022-09-26T05:39:33.563Z,98001.09
2022-09-26T05:42:02.643Z,98006.69
2022-09-26T05:44:30.943Z,97997.16
2022-09-26T05:46:59.471Z,97999.84
2022-09-26T05:49:28.464Z,97999.25
2022-09-26T05:51:57.377Z,97999.34
2022-09-26T05:54:25.128Z,97997.97
2022-09-26T05:56:55.123Z,97994.69
2022-09-26T05:59:46.934Z,97996.13
2022-09-26T06:02:26.824Z,97992.50
2022-09-26T06:05:15.124Z,97987.81
2022-09-26T06:08:02.516Z,97989.44
2022-09-26T06:10:38.465Z,97986.53
2022-09-26T06:13:08.409Z,97981.09
2022-09-26T06:15:50.486Z,97980.69
2022-09-26T06:18:18.469Z,97980.09
2022-09-26T06:20:46.312Z,97983.31
2022-09-26T06:23:14.743Z,97982.69
2022-09-26T06:25:45.513Z,97979.34
2022-09-26T06:28:14.028Z,97974.19
2022-09-26T06:30:42.002Z,97973.50
2022-09-26T06:33:51.286Z,97973.50
2022-09-26T06:36:27.428Z,97971.56
2022-09-26T06:38:55.974Z,97973.63
2022-09-26T06:41:26.398Z,97969.56
2022-09-26T06:43:54.456Z,97970.94
2022-09-26T06:46:41.118Z,97970.63
2022-09-26T06:49:15.605Z,97966.84
2022-09-26T06:51:48.912Z,97961.91
2022-09-26T06:54:18.252Z,97960.16
2022-09-26T06:56:45.970Z,97958.66
2022-09-26T06:59:16.825Z,97956.88
2022-09-26T07:01:53.082Z,97958.19
2022-09-26T07:04:41.958Z,97946.97
2022-09-26T07:07:28.196Z,97955.25
2022-09-26T07:09:56.576Z,97951.56
2022-09-26T07:12:46.862Z,97951.69
2022-09-26T07:15:18.182Z,97953.72
2022-09-26T07:17:48.006Z,97952.63
2022-09-26T07:20:33.103Z,97952.28
2022-09-26T07:23:12.306Z,97953.72
2022-09-26T07:25:46.287Z,97951.81
2022-09-26T07:28:14.515Z,97947.84
2022-09-26T07:30:49.952Z,97939.22
2022-09-26T07:33:36.077Z,97940.84
2022-09-26T07:36:10.316Z,97933.00
2022-09-26T07:38:38.307Z,97935.41
2022-09-26T07:41:11.248Z,97935.94
2022-09-26T07:46:47.151Z,97924.72
2022-09-26T07:49:32.571Z,97927.59
2022-09-26T07:52:37.298Z,97926.03
2022-09-26T07:55:26.860Z,97922.78
2022-09-26T07:58:13.418Z,97925.38
2022-09-26T08:01:18.398Z,97918.06
2022-09-26T08:04:06.295Z,97917.56
2022-09-26T08:06:38.414Z,97914.66
2022-09-26T08:09:08.960Z,97920.34
2022-09-26T08:12:12.094Z,97923.13
2022-09-26T08:15:06.141Z,97914.69
2022-09-26T08:17:45.671Z,97904.44
2022-09-26T08:20:15.491Z,97903.31
2022-09-26T08:22:43.462Z,97902.78
2022-09-26T08:25:17.142Z,97903.91
2022-09-26T08:27:53.562Z,97901.59
2022-09-26T08:30:23.569Z,97900.34
2022-09-26T08:32:53.910Z,97892.22
2022-09-26T08:35:22.006Z,97900.38
2022-09-26T08:37:52.490Z,97891.25
2022-09-26T08:40:36.692Z,97894.69
2022-09-26T08:43:26.039Z,97889.88
2022-09-26T08:46:38.895Z,97883.38
2022-09-26T08:49:39.219Z,97889.41
2022-09-26T08:52:26.929Z,97884.25
2022-09-26T08:54:57.853Z,97882.56
2022-09-26T08:57:38.803Z,97873.88
2022-09-26T09:00:18.964Z,97877.59
2022-09-26T09:03:03.679Z,97877.59
2022-09-26T09:05:39.024Z,97875.47
2022-09-26T09:08:13.784Z,97874.59
2022-09-26T09:11:02.515Z,97868.44
2022-09-26T09:13:49.572Z,97872.06
2022-09-26T09:17:05.029Z,97868.81
2022-09-26T09:20:05.145Z,97860.31
2022-09-26T09:23:09.005Z,97854.63
2022-09-26T09:25:48.313Z,97868.81
2022-09-26T09:28:32.294Z,97862.47
2022-09-26T09:31:07.551Z,97853.28
2022-09-26T09:33:54.200Z,97849.63
2022-09-26T09:36:32.957Z,97849.19
2022-09-26T09:39:22.353Z,97849.16
2022-09-26T09:42:01.708Z,97844.91
2022-09-26T09:44:43.064Z,97836.72
2022-09-26T09:47:17.158Z,97840.97
2022-09-26T09:49:47.792Z,97822.97
2022-09-26T09:52:38.194Z,97829.31
2022-09-26T09:55:17.657Z,97831.00
2022-09-26T09:58:20.750Z,97818.31
2022-09-26T10:01:01.187Z,97817.78
2022-09-26T10:03:40.859Z,97823.25
2022-09-26T10:06:44.515Z,97818.66
2022-09-26T10:09:35.989Z,97809.84
2022-09-26T10:12:28.713Z,97804.06
2022-09-26T10:15:20.525Z,97807.50
2022-09-26T10:18:27.356Z,97800.75
2022-09-26T10:21:09.238Z,97787.47
2022-09-26T10:23:40.411Z,97792.22
2022-09-26T10:26:15.149Z,97783.88
2022-09-26T10:28:48.162Z,97778.25
2022-09-26T10:31:25.037Z,97776.88
2022-09-26T10:34:24.308Z,97774.31
2022-09-26T10:36:53.954Z,97772.91
2022-09-26T10:39:56.268Z,97767.53
2022-09-26T10:42:29.906Z,97763.69
2022-09-26T10:45:13.004Z,97771.09
2022-09-26T10:48:14.131Z,97759.53
2022-09-26T10:51:02.129Z,97760.66
2022-09-26T10:53:45.682Z,97761.19
2022-09-26T10:56:23.404Z,97760.31
2022-09-26T10:58:52.587Z,97755.53
2022-09-26T11:01:23.364Z,97744.00
2022-09-26T11:03:52.119Z,97741.78
2022-09-26T11:06:30.262Z,97742.25
2022-09-26T11:09:21.410Z,97747.72
2022-09-26T11:12:26.200Z,97732.00
2022-09-26T11:14:59.065Z,97734.50
2022-09-26T11:17:44.851Z,97734.53
2022-09-26T11:20:21.749Z,97726.81
2022-09-26T11:22:55.927Z,97722.94
2022-09-26T11:25:29.102Z,97725.50
2022-09-26T11:28:06.042Z,97714.53
2022-09-26T11:30:59.066Z,97702.56
2022-09-26T11:33:32.670Z,97693.59
2022-09-26T11:36:35.996Z,97692.41
2022-09-26T11:39:12.908Z,97682.56
2022-09-26T11:42:03.942Z,97679.25
2022-09-26T11:44:46.327Z,97680.28
2022-09-26T11:47:49.742Z,97676.53
2022-09-26T11:50:40.340Z,97671.88
2022-09-26T11:53:45.971Z,97664.75
2022-09-26T11:56:43.603Z,97662.31
2022-09-26T11:59:29.588Z,97672.91
2022-09-26T12:02:18.146Z,97694.81
2022-09-26T12:05:02.821Z,97697.88
2022-09-26T12:07:40.281Z,97701.34
2022-09-26T12:10:26.212Z,97701.56
2022-09-26T12:13:09.069Z,97710.56
2022-09-26T12:15:44.859Z,97694.59
2022-09-26T12:18:21.866Z,97672.91
2022-09-26T12:21:06.507Z,97677.09
2022-09-26T12:23:40.087Z,97661.03
2022-09-26T12:26:17.104Z,97656.63
2022-09-26T12:29:20.183Z,97641.22
2022-09-26T12:32:00.732Z,97624.88
2022-09-26T12:34:45.554Z,97619.16
2022-09-26T12:37:32.767Z,97621.94
2022-09-26T12:40:19.153Z,97609.78
2022-09-26T12:43:05.783Z,97613.31
2022-09-26T12:45:53.308Z,97601.56
2022-09-26T12:48:49.697Z,97606.63
2022-09-26T12:51:28.574Z,97606.06
2022-09-26T12:54:13.584Z,97599.53
2022-09-26T12:56:48.909Z,97597.66
2022-09-26T12:59:29.209Z,97594.47
2022-09-26T13:02:28.627Z,97598.88
2022-09-26T13:05:23.209Z,97584.69
2022-09-26T13:08:02.943Z,97590.50
2022-09-26T13:10:38.980Z,97592.97
2022-09-26T13:13:38.920Z,97593.34
2022-09-26T13:16:19.987Z,97583.63
2022-09-26T13:18:51.578Z,97584.38
2022-09-26T13:21:25.219Z,97588.44
2022-09-26T13:23:59.028Z,97578.06
2022-09-26T13:26:34.304Z,97591.09
2022-09-26T13:29:17.603Z,97586.66
2022-09-26T13:31:55.487Z,97582.47
2022-09-26T13:34:31.085Z,97580.22
2022-09-26T13:37:01.223Z,97574.16
2022-09-26T13:39:34.476Z,97570.53
2022-09-26T13:42:08.518Z,97572.25
2022-09-26T13:44:56.184Z,97567.22
2022-09-26T13:47:31.648Z,97557.41
2022-09-26T13:50:04.121Z,97542.31
2022-09-26T13:52:44.775Z,97552.53
2022-09-26T13:55:20.133Z,97541.66
2022-09-26T13:57:52.326Z,97545.63
2022-09-26T14:00:40.774Z,97563.38
2022-09-26T14:03:36.269Z,97550.38
2022-09-26T14:06:31.896Z,97553.84
2022-09-26T14:12:20.364Z,97543.66
2022-09-26T14:15:13.505Z,97542.59
2022-09-26T14:18:15.334Z,97543.19
2022-09-26T14:21:17.057Z,97544.13
2022-09-26T14:23:46.813Z,97526.00
2022-09-26T14:26:21.034Z,97526.84
2022-09-26T14:28:55.659Z,97513.13
2022-09-26T14:31:57.048Z,97513.28
2022-09-26T14:34:30.574Z,97501.97
2022-09-26T14:37:03.923Z,97506.81
2022-09-26T14:39:37.920Z,97508.13
2022-09-26T14:42:12.059Z,97507.44
2022-09-26T14:44:52.199Z,97500.38
2022-09-26T14:47:20.603Z,97495.25
2022-09-26T14:49:58.615Z,97494.53
2022-09-26T14:52:27.822Z,97506.84
2022-09-26T14:55:01.168Z,97499.44
2022-09-26T14:57:32.933Z,97498.22
2022-09-26T15:00:03.790Z,97497.34
2022-09-26T15:02:41.290Z,97498.72
2022-09-26T15:05:25.141Z,97492.81
2022-09-26T15:07:55.115Z,97494.03
2022-09-26T15:10:27.046Z,97490.47
2022-09-26T15:13:02.218Z,97485.28
2022-09-26T15:15:38.892Z,97484.97
2022-09-26T15:18:14.816Z,97492.22
2022-09-26T15:21:04.234Z,97487.69
2022-09-26T15:23:35.814Z,97482.53
2022-09-26T15:26:05.320Z,97484.09
2022-09-26T15:28:34.895Z,97473.59
2022-09-26T15:31:26.223Z,97472.09
2022-09-26T15:34:00.315Z,97465.13
2022-09-26T15:36:33.091Z,97461.41
2022-09-26T15:39:02.435Z,97458.91
2022-09-26T15:41:44.378Z,97459.50
2022-09-26T15:44:20.601Z,97458.22
2022-09-26T15:46:51.658Z,97457.22
2022-09-26T15:49:22.223Z,97450.09
2022-09-26T15:51:54.718Z,97446.69
2022-09-26T15:54:28.925Z,97446.69
2022-09-26T15:57:02.213Z,97446.22
2022-09-26T15:59:36.323Z,97445.13
2022-09-26T16:02:23.570Z,97441.22
2022-09-26T16:04:54.847Z,97432.03
2022-09-26T16:07:26.470Z,97433.13
2022-09-26T16:09:57.495Z,97429.97
2022-09-26T16:12:29.496Z,97434.81
2022-09-26T16:15:02.784Z,97430.50
2022-09-26T16:17:36.221Z,97430.09
2022-09-26T16:20:25.549Z,97433.00
2022-09-26T16:23:00.438Z,97432.25
2022-09-26T16:25:36.301Z,97414.78
2022-09-26T16:28:42.560Z,97420.00
2022-09-26T16:31:21.399Z,97414.78
2022-09-26T16:33:53.593Z,97417.13
2022-09-26T16:36:24.566Z,97425.75
2022-09-26T16:38:55.559Z,97417.69
2022-09-26T16:41:56.353Z,97405.66
2022-09-26T16:44:28.970Z,97402.59
2022-09-26T16:47:03.721Z,97408.47
2022-09-26T16:49:46.128Z,97409.72
2022-09-26T16:52:28.732Z,97400.31
2022-09-26T16:54:58.831Z,97404.47
2022-09-26T16:57:30.099Z,97396.81
2022-09-26T17:00:15.358Z,97393.28
2022-09-26T17:02:43.848Z,97388.50
2022-09-26T17:05:18.962Z,97380.25
2022-09-26T17:07:48.519Z,97383.88
2022-09-26T17:10:17.370Z,97376.16
2022-09-26T17:12:50.713Z,97381.06
2022-09-26T17:15:24.744Z,97378.25
2022-09-26T17:17:53.785Z,97373.13
2022-09-26T17:20:23.972Z,97364.94
2022-09-26T17:22:52.273Z,97365.88
2022-09-26T17:25:20.483Z,97358.53
2022-09-26T17:27:53.679Z,97365.19
2022-09-26T17:30:22.224Z,97370.88
2022-09-26T17:32:54.269Z,97360.75
2022-09-26T17:35:29.477Z,97363.28
2022-09-26T17:37:57.784Z,97362.81
2022-09-26T17:40:28.221Z,97353.00
2022-09-26T17:42:57.907Z,97351.66
2022-09-26T17:45:30.365Z,97344.06
2022-09-26T17:48:00.551Z,97341.41
2022-09-26T17:50:32.378Z,97330.41
2022-09-26T17:53:03.242Z,97332.72
2022-09-26T17:55:32.462Z,97319.47
2022-09-26T17:58:02.346Z,97315.34
2022-09-26T18:00:34.414Z,97315.06
2022-09-26T18:03:04.315Z,97306.56
2022-09-26T18:05:37.679Z,97314.63
2022-09-26T18:08:11.981Z,97302.59
2022-09-26T18:10:45.376Z,97307.44
2022-09-26T18:13:16.022Z,97305.41
2022-09-26T18:15:44.078Z,97305.75
2022-09-26T18:18:17.287Z,97296.94
2022-09-26T18:20:49.408Z,97294.50
2022-09-26T18:23:20.986Z,97296.69
2022-09-26T18:25:51.066Z,97288.78
2022-09-26T18:28:22.316Z,97283.50
2022-09-26T18:30:58.096Z,97280.25
2022-09-26T18:33:28.931Z,97281.03
2022-09-26T18:35:59.225Z,97272.97
2022-09-26T18:38:27.406Z,97271.66
2022-09-26T18:40:58.589Z,97264.13
2022-09-26T18:43:39.078Z,97262.91
2022-09-26T18:46:12.334Z,97257.78
2022-09-26T18:48:41.730Z,97268.34
2022-09-26T18:51:11.559Z,97258.13
2022-09-26T18:53:40.456Z,97252.53
2022-09-26T18:56:27.248Z,97246.31
2022-09-26T18:58:56.785Z,97245.75
2022-09-26T19:01:29.599Z,97243.38
2022-09-26T19:04:00.621Z,97251.56
2022-09-26T19:06:33.224Z,97248.22
2022-09-26T19:09:03.698Z,97246.28
2022-09-26T19:11:34.566Z,97243.53
2022-09-26T19:14:12.591Z,97235.31
2022-09-26T19:16:40.691Z,97244.31
2022-09-26T19:19:08.865Z,97236.75
2022-09-26T19:21:40.658Z,97239.81
2022-09-26T19:24:20.171Z,97245.75
2022-09-26T19:26:51.218Z,97240.94
2022-09-26T19:29:27.835Z,97236.56
2022-09-26T19:31:56.227Z,97239.47
2022-09-26T19:34:26.501Z,97239.16
2022-09-26T19:36:58.781Z,97244.91
2022-09-26T19:39:27.452Z,97226.59
2022-09-26T19:41:55.563Z,97231.00
2022-09-26T19:44:24.392Z,97237.28
2022-09-26T19:46:52.632Z,97228.88
2022-09-26T19:49:20.896Z,97229.81
2022-09-26T19:51:49.862Z,97231.34
2022-09-26T19:54:20.068Z,97229.00
2022-09-26T19:56:48.320Z,97219.84
2022-09-26T19:59:17.338Z,97223.63
2022-09-26T20:01:47.409Z,97224.63
2022-09-26T20:04:18.715Z,97220.00
2022-09-26T20:06:47.357Z,97211.53
2022-09-26T20:09:17.674Z,97211.22
2022-09-26T20:11:47.416Z,97209.00
2022-09-26T20:14:24.657Z,97198.69
2022-09-26T20:16:54.522Z,97196.06
2022-09-26T20:19:30.233Z,97206.22
2022-09-26T20:22:01.892Z,97194.72
2022-09-26T20:24:31.997Z,97193.31
2022-09-26T20:27:04.663Z,97187.44
2022-09-26T20:29:52.997Z,97182.09
2022-09-26T20:32:21.990Z,97181.94
2022-09-26T20:34:50.011Z,97189.69
2022-09-26T20:37:19.908Z,97178.38
2022-09-26T20:39:48.282Z,97170.59
2022-09-26T20:42:20.006Z,97182.66
2022-09-26T20:44:50.763Z,97187.75
2022-09-26T20:47:21.392Z,97176.84
2022-09-26T20:49:54.822Z,97185.16
2022-09-26T20:52:25.201Z,97178.56
2022-09-26T20:54:54.200Z,97173.25
2022-09-26T20:57:24.059Z,97161.47
2022-09-26T20:59:52.633Z,97163.09
2022-09-26T21:02:30.916Z,97154.25
2022-09-26T21:05:01.415Z,97153.59
2022-09-26T21:07:31.918Z,97144.59
2022-09-26T21:10:00.055Z,97150.47
2022-09-26T21:12:29.539Z,97142.03
2022-09-26T21:14:57.607Z,97139.03
2022-09-26T21:17:29.381Z,97136.28
2022-09-26T21:19:57.695Z,97133.78
2022-09-26T21:22:55.279Z,97132.13
2022-09-26T21:25:25.248Z,97131.69
2022-09-26T21:27:58.353Z,97127.66
2022-09-26T21:30:26.452Z,97119.38
2022-09-26T21:32:57.510Z,97123.84
2022-09-26T21:35:29.680Z,97120.91
2022-09-26T21:38:02.761Z,97122.41
2022-09-26T21:40:36.166Z,97122.41
2022-09-26T21:43:12.419Z,97124.53
2022-09-26T21:45:42.873Z,97116.91
2022-09-26T21:48:10.970Z,97113.59
2022-09-26T21:50:42.182Z,97120.06
2022-09-26T21:53:13.914Z,97117.53
2022-09-26T21:55:48.948Z,97109.56
2022-09-26T21:58:22.736Z,97110.41
2022-09-26T22:00:50.944Z,97100.50
2022-09-26T22:03:19.114Z,97101.28
2022-09-26T22:05:47.223Z,97099.09
2022-09-26T22:08:15.365Z,97093.13
2022-09-26T22:10:43.394Z,97098.25
2022-09-26T22:13:11.623Z,97098.44
2022-09-26T22:15:41.056Z,97083.56
2022-09-26T22:18:09.746Z,97089.66
2022-09-26T22:20:38.128Z,97085.50
2022-09-26T22:23:06.248Z,97085.59
2022-09-26T22:25:36.258Z,97083.28
2022-09-26T22:28:05.789Z,97082.69
2022-09-26T22:30:33.889Z,97077.09
2022-09-26T22:33:03.476Z,97068.22
2022-09-26T22:35:31.566Z,97067.78
2022-09-26T22:37:59.673Z,97065.75
2022-09-26T22:40:27.765Z,97058.78
2022-09-26T22:42:55.908Z,97057.78
2022-09-26T22:45:23.973Z,97051.88
2022-09-26T22:47:52.289Z,97047.09
2022-09-26T22:50:21.746Z,97043.94
2022-09-26T22:52:49.844Z,97049.75
2022-09-26T22:55:18.484Z,97047.06
2022-09-26T22:57:46.549Z,97047.31
2022-09-26T23:00:15.459Z,97042.22
2022-09-26T23:02:43.839Z,97034.22
2022-09-26T23:05:12.093Z,97035.16
2022-09-26T23:07:41.690Z,97027.13
2022-09-26T23:10:10.287Z,97020.75
2022-09-26T23:12:40.433Z,97012.81
2022-09-26T23:15:09.485Z,97003.69
2022-09-26T23:17:37.616Z,97002.06
2022-09-26T23:20:06.824Z,96999.56
2022-09-26T23:22:34.977Z,96989.97
2022-09-26T23:25:04.625Z,96976.41
2022-09-26T23:27:32.788Z,96970.75
2022-09-26T23:30:00.897Z,96963.47
2022-09-26T23:32:29.023Z,96959.81
2022-09-26T23:34:57.153Z,96960.81
2022-09-26T23:37:25.235Z,96962.63
2022-09-26T23:39:53.422Z,96959.19
2022-09-26T23:42:22.825Z,96949.88
2022-09-26T23:44:51.147Z,96948.91
2022-09-26T23:47:19.245Z,96947.88
2022-09-26T23:49:47.245Z,96942.94
2022-09-26T23:52:15.421Z,96941.28
2022-09-26T23:54:43.469Z,96944.25
2022-09-26T23:57:11.581Z,96931.16
2022-09-26T23:59:41.028Z,96926.00
